Open Full Screen Window  High Contrast Mode
Wind Gusting 28 knots
18
April 23, 2014 5:35 PM CDT
Weather Information
Wind Direction
  140 °
Wind Speed
  18 kt (21 mph)
Wind Gust
  28 kt (32 mph)
Altimeter
29.63 in
Visibility
10 SM
Temperature
15° C
59° F
Dewpoint
04° C
39° F
Humidity
48%
1hr Rain Fall
00.00 in.
24hr Rain Fall
00.00 in.
Sky Condition
Broken @ 5,500 ft
VFR

METAR KMDS 232235Z AUTO 14018G28KT 10SM BKN055 15/04 A2963 RMK AO2 LTG DSNT NE AND SW

*Background is not an actual portrayal of the airport.